sensor_id;sensor_type;location;lat;lon;timestamp;temperature;humidity
39095;DHT22;24840;47.508;19.376;2023-06-19T00:02:21;13.10;99.90
39095;DHT22;24840;47.508;19.376;2023-06-19T00:04:47;13.10;99.90
39095;DHT22;24840;47.508;19.376;2023-06-19T00:07:13;13.00;99.90
39095;DHT22;24840;47.508;19.376;2023-06-19T00:09:39;13.00;99.90
39095;DHT22;24840;47.508;19.376;2023-06-19T00:12:05;13.00;99.90
39095;DHT22;24840;47.508;19.376;2023-06-19T00:14:31;13.00;99.90
39095;DHT22;24840;47.508;19.376;2023-06-19T00:16:56;13.00;99.90
39095;DHT22;24840;47.508;19.376;2023-06-19T00:19:22;12.90;99.90
39095;DHT22;24840;47.508;19.376;2023-06-19T00:21:48;12.90;99.90
39095;DHT22;24840;47.508;19.376;2023-06-19T00:24:14;12.90;99.90
39095;DHT22;24840;47.508;19.376;2023-06-19T00:26:40;12.90;99.90
39095;DHT22;24840;47.508;19.376;2023-06-19T00:29:05;12.90;99.90
39095;DHT22;24840;47.508;19.376;2023-06-19T00:31:32;12.90;99.90
39095;DHT22;24840;47.508;19.376;2023-06-19T00:33:58;12.90;99.90
39095;DHT22;24840;47.508;19.376;2023-06-19T00:36:24;12.90;99.90
39095;DHT22;24840;47.508;19.376;2023-06-19T00:38:51;12.80;99.90
39095;DHT22;24840;47.508;19.376;2023-06-19T00:41:18;12.70;99.90
39095;DHT22;24840;47.508;19.376;2023-06-19T00:43:44;12.70;99.90
39095;DHT22;24840;47.508;19.376;2023-06-19T00:46:11;12.60;99.90
39095;DHT22;24840;47.508;19.376;2023-06-19T00:48:37;12.70;99.90
39095;DHT22;24840;47.508;19.376;2023-06-19T00:51:03;12.70;99.90
39095;DHT22;24840;47.508;19.376;2023-06-19T00:53:30;12.60;99.90
39095;DHT22;24840;47.508;19.376;2023-06-19T00:55:56;12.60;99.90
39095;DHT22;24840;47.508;19.376;2023-06-19T00:58:23;12.50;99.90
39095;DHT22;24840;47.508;19.376;2023-06-19T01:00:49;12.50;99.90
39095;DHT22;24840;47.508;19.376;2023-06-19T01:03:16;12.50;99.90
39095;DHT22;24840;47.508;19.376;2023-06-19T01:05:42;12.50;99.90
39095;DHT22;24840;47.508;19.376;2023-06-19T01:08:37;12.40;99.90
39095;DHT22;24840;47.508;19.376;2023-06-19T01:11:07;12.50;99.90
39095;DHT22;24840;47.508;19.376;2023-06-19T01:16:08;12.30;99.90
39095;DHT22;24840;47.508;19.376;2023-06-19T01:18:36;12.20;99.90
39095;DHT22;24840;47.508;19.376;2023-06-19T01:21:17;12.10;99.90
39095;DHT22;24840;47.508;19.376;2023-06-19T01:23:44;12.20;99.90
39095;DHT22;24840;47.508;19.376;2023-06-19T01:26:10;12.20;99.90
39095;DHT22;24840;47.508;19.376;2023-06-19T01:28:37;12.30;99.90
39095;DHT22;24840;47.508;19.376;2023-06-19T01:31:20;12.30;99.90
39095;DHT22;24840;47.508;19.376;2023-06-19T01:33:47;12.30;99.90
39095;DHT22;24840;47.508;19.376;2023-06-19T01:36:17;12.30;99.90
39095;DHT22;24840;47.508;19.376;2023-06-19T01:38:44;12.20;99.90
39095;DHT22;24840;47.508;19.376;2023-06-19T01:41:11;12.20;99.90
39095;DHT22;24840;47.508;19.376;2023-06-19T01:43:37;12.10;99.90
39095;DHT22;24840;47.508;19.376;2023-06-19T01:46:03;12.20;99.90
39095;DHT22;24840;47.508;19.376;2023-06-19T01:48:29;12.10;99.90
39095;DHT22;24840;47.508;19.376;2023-06-19T01:50:55;12.00;99.90
39095;DHT22;24840;47.508;19.376;2023-06-19T01:53:21;11.90;99.90
39095;DHT22;24840;47.508;19.376;2023-06-19T01:55:47;12.00;99.90
39095;DHT22;24840;47.508;19.376;2023-06-19T01:58:13;12.00;99.90
39095;DHT22;24840;47.508;19.376;2023-06-19T02:00:38;12.00;99.90
39095;DHT22;24840;47.508;19.376;2023-06-19T02:03:05;11.90;99.90
39095;DHT22;24840;47.508;19.376;2023-06-19T02:05:31;11.80;99.90
39095;DHT22;24840;47.508;19.376;2023-06-19T02:07:57;11.70;99.90
39095;DHT22;24840;47.508;19.376;2023-06-19T02:10:23;11.80;99.90
39095;DHT22;24840;47.508;19.376;2023-06-19T02:12:49;11.70;99.90
39095;DHT22;24840;47.508;19.376;2023-06-19T02:15:15;11.70;99.90
39095;DHT22;24840;47.508;19.376;2023-06-19T02:17:40;11.70;99.90
39095;DHT22;24840;47.508;19.376;2023-06-19T02:20:08;11.70;99.90
39095;DHT22;24840;47.508;19.376;2023-06-19T02:22:38;11.80;99.90
39095;DHT22;24840;47.508;19.376;2023-06-19T02:25:04;11.80;99.90
39095;DHT22;24840;47.508;19.376;2023-06-19T02:27:30;11.90;99.90
39095;DHT22;24840;47.508;19.376;2023-06-19T02:29:56;11.80;99.90
39095;DHT22;24840;47.508;19.376;2023-06-19T02:32:21;11.60;99.90
39095;DHT22;24840;47.508;19.376;2023-06-19T02:34:47;11.70;99.90
39095;DHT22;24840;47.508;19.376;2023-06-19T02:37:13;11.80;99.90
39095;DHT22;24840;47.508;19.376;2023-06-19T02:39:39;11.70;99.90
39095;DHT22;24840;47.508;19.376;2023-06-19T02:42:05;11.70;99.90
39095;DHT22;24840;47.508;19.376;2023-06-19T02:44:31;11.80;99.90
39095;DHT22;24840;47.508;19.376;2023-06-19T02:46:57;11.70;99.90
39095;DHT22;24840;47.508;19.376;2023-06-19T02:49:23;11.70;99.90
39095;DHT22;24840;47.508;19.376;2023-06-19T02:51:49;11.80;99.90
39095;DHT22;24840;47.508;19.376;2023-06-19T02:54:14;11.70;99.90
39095;DHT22;24840;47.508;19.376;2023-06-19T02:56:40;11.70;99.90
39095;DHT22;24840;47.508;19.376;2023-06-19T02:59:06;11.70;99.90
39095;DHT22;24840;47.508;19.376;2023-06-19T03:01:32;11.70;99.90
39095;DHT22;24840;47.508;19.376;2023-06-19T03:03:57;11.70;99.90
39095;DHT22;24840;47.508;19.376;2023-06-19T03:06:23;11.70;99.90
39095;DHT22;24840;47.508;19.376;2023-06-19T03:08:49;11.70;99.90
39095;DHT22;24840;47.508;19.376;2023-06-19T03:11:14;11.70;99.90
39095;DHT22;24840;47.508;19.376;2023-06-19T03:13:51;11.80;99.90
39095;DHT22;24840;47.508;19.376;2023-06-19T03:16:17;11.80;99.90
39095;DHT22;24840;47.508;19.376;2023-06-19T03:18:43;11.80;99.90
39095;DHT22;24840;47.508;19.376;2023-06-19T03:21:13;11.80;99.90
39095;DHT22;24840;47.508;19.376;2023-06-19T03:23:39;11.90;99.90
39095;DHT22;24840;47.508;19.376;2023-06-19T03:26:09;11.80;99.90
39095;DHT22;24840;47.508;19.376;2023-06-19T03:28:36;11.90;99.90
39095;DHT22;24840;47.508;19.376;2023-06-19T03:31:02;11.80;99.90
39095;DHT22;24840;47.508;19.376;2023-06-19T03:33:27;11.90;99.90
39095;DHT22;24840;47.508;19.376;2023-06-19T03:35:53;11.90;99.90
39095;DHT22;24840;47.508;19.376;2023-06-19T03:38:19;11.90;99.90
39095;DHT22;24840;47.508;19.376;2023-06-19T03:40:45;12.00;99.90
39095;DHT22;24840;47.508;19.376;2023-06-19T03:43:12;12.00;99.90
39095;DHT22;24840;47.508;19.376;2023-06-19T03:45:37;12.00;99.90
39095;DHT22;24840;47.508;19.376;2023-06-19T03:48:03;12.00;99.90
39095;DHT22;24840;47.508;19.376;2023-06-19T03:50:29;12.00;99.90
39095;DHT22;24840;47.508;19.376;2023-06-19T03:52:55;11.90;99.90
39095;DHT22;24840;47.508;19.376;2023-06-19T03:55:21;12.00;99.90
39095;DHT22;24840;47.508;19.376;2023-06-19T03:57:46;12.10;99.90
39095;DHT22;24840;47.508;19.376;2023-06-19T04:00:14;12.30;99.90
39095;DHT22;24840;47.508;19.376;2023-06-19T04:02:40;12.50;99.90
39095;DHT22;24840;47.508;19.376;2023-06-19T04:05:07;12.60;99.90
39095;DHT22;24840;47.508;19.376;2023-06-19T04:07:33;12.70;99.90
39095;DHT22;24840;47.508;19.376;2023-06-19T04:09:59;12.70;99.90
39095;DHT22;24840;47.508;19.376;2023-06-19T04:12:25;12.90;99.90
39095;DHT22;24840;47.508;19.376;2023-06-19T04:14:50;13.10;99.90
39095;DHT22;24840;47.508;19.376;2023-06-19T04:17:17;13.20;99.90
39095;DHT22;24840;47.508;19.376;2023-06-19T04:19:43;13.30;99.90
39095;DHT22;24840;47.508;19.376;2023-06-19T04:22:08;13.40;99.90
39095;DHT22;24840;47.508;19.376;2023-06-19T04:24:35;13.40;99.90
39095;DHT22;24840;47.508;19.376;2023-06-19T04:27:01;13.60;99.90
39095;DHT22;24840;47.508;19.376;2023-06-19T04:29:26;13.60;99.90
39095;DHT22;24840;47.508;19.376;2023-06-19T04:32:00;13.70;99.90
39095;DHT22;24840;47.508;19.376;2023-06-19T04:34:28;13.80;99.90
39095;DHT22;24840;47.508;19.376;2023-06-19T04:36:55;13.90;99.90
39095;DHT22;24840;47.508;19.376;2023-06-19T04:39:24;13.80;99.90
39095;DHT22;24840;47.508;19.376;2023-06-19T04:41:50;13.90;99.90
39095;DHT22;24840;47.508;19.376;2023-06-19T04:44:16;13.80;99.90
39095;DHT22;24840;47.508;19.376;2023-06-19T04:46:43;14.00;99.90
39095;DHT22;24840;47.508;19.376;2023-06-19T04:49:12;14.00;99.90
39095;DHT22;24840;47.508;19.376;2023-06-19T04:51:40;14.10;99.90
39095;DHT22;24840;47.508;19.376;2023-06-19T04:54:05;14.20;99.90
39095;DHT22;24840;47.508;19.376;2023-06-19T04:56:31;14.20;99.90
39095;DHT22;24840;47.508;19.376;2023-06-19T04:58:57;14.30;99.90
39095;DHT22;24840;47.508;19.376;2023-06-19T05:01:26;14.50;99.90
39095;DHT22;24840;47.508;19.376;2023-06-19T05:03:56;14.70;99.90
39095;DHT22;24840;47.508;19.376;2023-06-19T05:06:25;14.80;99.90
39095;DHT22;24840;47.508;19.376;2023-06-19T05:08:51;15.20;99.90
39095;DHT22;24840;47.508;19.376;2023-06-19T05:11:17;15.30;99.90
39095;DHT22;24840;47.508;19.376;2023-06-19T05:13:43;15.50;99.90
39095;DHT22;24840;47.508;19.376;2023-06-19T05:16:10;15.70;99.90
39095;DHT22;24840;47.508;19.376;2023-06-19T05:18:36;15.90;99.90
39095;DHT22;24840;47.508;19.376;2023-06-19T05:21:01;16.00;99.90
39095;DHT22;24840;47.508;19.376;2023-06-19T05:23:27;16.20;99.90
39095;DHT22;24840;47.508;19.376;2023-06-19T05:25:53;16.30;99.90
39095;DHT22;24840;47.508;19.376;2023-06-19T05:28:18;16.30;99.90
39095;DHT22;24840;47.508;19.376;2023-06-19T05:30:44;16.30;99.90
39095;DHT22;24840;47.508;19.376;2023-06-19T05:33:10;16.30;99.90
39095;DHT22;24840;47.508;19.376;2023-06-19T05:35:39;16.50;99.90
39095;DHT22;24840;47.508;19.376;2023-06-19T05:38:04;16.50;99.90
39095;DHT22;24840;47.508;19.376;2023-06-19T05:40:30;16.60;99.90
39095;DHT22;24840;47.508;19.376;2023-06-19T05:42:56;16.80;99.90
39095;DHT22;24840;47.508;19.376;2023-06-19T05:45:22;16.70;99.90
39095;DHT22;24840;47.508;19.376;2023-06-19T05:47:47;16.70;99.90
39095;DHT22;24840;47.508;19.376;2023-06-19T05:50:13;16.70;99.90
39095;DHT22;24840;47.508;19.376;2023-06-19T05:52:39;17.00;99.90
39095;DHT22;24840;47.508;19.376;2023-06-19T05:55:09;17.40;99.90
39095;DHT22;24840;47.508;19.376;2023-06-19T05:57:35;17.80;99.90
39095;DHT22;24840;47.508;19.376;2023-06-19T06:00:01;18.30;99.90
39095;DHT22;24840;47.508;19.376;2023-06-19T06:02:28;18.40;99.90
39095;DHT22;24840;47.508;19.376;2023-06-19T06:04:54;18.60;99.90
39095;DHT22;24840;47.508;19.376;2023-06-19T06:07:21;18.60;99.90
39095;DHT22;24840;47.508;19.376;2023-06-19T06:09:47;18.70;99.90
39095;DHT22;24840;47.508;19.376;2023-06-19T06:12:13;19.20;99.90
39095;DHT22;24840;47.508;19.376;2023-06-19T06:14:40;19.40;99.90
39095;DHT22;24840;47.508;19.376;2023-06-19T06:17:06;19.60;99.90
39095;DHT22;24840;47.508;19.376;2023-06-19T06:19:32;19.80;99.90
39095;DHT22;24840;47.508;19.376;2023-06-19T06:21:58;20.00;99.90
39095;DHT22;24840;47.508;19.376;2023-06-19T06:24:24;20.10;99.90
39095;DHT22;24840;47.508;19.376;2023-06-19T06:26:49;20.20;99.90
39095;DHT22;24840;47.508;19.376;2023-06-19T06:29:15;20.50;99.90
39095;DHT22;24840;47.508;19.376;2023-06-19T06:31:41;20.70;99.90
39095;DHT22;24840;47.508;19.376;2023-06-19T06:34:07;20.80;99.90
39095;DHT22;24840;47.508;19.376;2023-06-19T06:36:33;21.10;99.90
39095;DHT22;24840;47.508;19.376;2023-06-19T06:38:58;21.30;99.90
39095;DHT22;24840;47.508;19.376;2023-06-19T06:41:24;21.50;99.90
39095;DHT22;24840;47.508;19.376;2023-06-19T06:43:50;21.60;99.90
39095;DHT22;24840;47.508;19.376;2023-06-19T06:46:15;21.40;99.90
39095;DHT22;24840;47.508;19.376;2023-06-19T06:48:41;21.70;99.90
39095;DHT22;24840;47.508;19.376;2023-06-19T06:51:07;21.80;99.90
39095;DHT22;24840;47.508;19.376;2023-06-19T06:53:34;22.20;99.90
39095;DHT22;24840;47.508;19.376;2023-06-19T06:56:00;22.30;99.90
39095;DHT22;24840;47.508;19.376;2023-06-19T06:58:26;22.20;99.90
39095;DHT22;24840;47.508;19.376;2023-06-19T07:00:52;22.50;99.90
39095;DHT22;24840;47.508;19.376;2023-06-19T07:03:18;22.30;99.90
39095;DHT22;24840;47.508;19.376;2023-06-19T07:05:44;22.50;99.90
39095;DHT22;24840;47.508;19.376;2023-06-19T07:08:10;22.90;99.90
39095;DHT22;24840;47.508;19.376;2023-06-19T07:10:36;23.20;99.90
39095;DHT22;24840;47.508;19.376;2023-06-19T07:13:02;23.40;99.90
39095;DHT22;24840;47.508;19.376;2023-06-19T07:15:28;23.30;99.90
39095;DHT22;24840;47.508;19.376;2023-06-19T07:17:53;23.50;99.90
39095;DHT22;24840;47.508;19.376;2023-06-19T07:20:19;23.50;99.40
39095;DHT22;24840;47.508;19.376;2023-06-19T07:22:45;23.60;99.90
39095;DHT22;24840;47.508;19.376;2023-06-19T07:25:12;23.80;99.90
39095;DHT22;24840;47.508;19.376;2023-06-19T07:27:41;23.80;99.90
39095;DHT22;24840;47.508;19.376;2023-06-19T07:30:07;24.00;98.10
39095;DHT22;24840;47.508;19.376;2023-06-19T07:32:33;23.90;98.50
39095;DHT22;24840;47.508;19.376;2023-06-19T07:34:59;24.00;99.90
39095;DHT22;24840;47.508;19.376;2023-06-19T07:37:24;24.50;99.90
39095;DHT22;24840;47.508;19.376;2023-06-19T07:39:51;24.80;99.50
39095;DHT22;24840;47.508;19.376;2023-06-19T07:42:18;25.10;98.80
39095;DHT22;24840;47.508;19.376;2023-06-19T07:44:44;25.30;98.40
39095;DHT22;24840;47.508;19.376;2023-06-19T07:47:11;25.40;97.30
39095;DHT22;24840;47.508;19.376;2023-06-19T07:49:37;25.70;98.70
39095;DHT22;24840;47.508;19.376;2023-06-19T07:52:04;25.50;97.10
39095;DHT22;24840;47.508;19.376;2023-06-19T07:54:30;25.90;99.90
39095;DHT22;24840;47.508;19.376;2023-06-19T07:56:55;26.20;97.20
39095;DHT22;24840;47.508;19.376;2023-06-19T07:59:21;26.30;96.50
39095;DHT22;24840;47.508;19.376;2023-06-19T08:01:48;26.20;94.50
39095;DHT22;24840;47.508;19.376;2023-06-19T08:04:14;26.60;94.60
39095;DHT22;24840;47.508;19.376;2023-06-19T08:06:40;26.50;94.90
39095;DHT22;24840;47.508;19.376;2023-06-19T08:09:05;26.50;96.40
39095;DHT22;24840;47.508;19.376;2023-06-19T08:11:31;26.30;93.60
39095;DHT22;24840;47.508;19.376;2023-06-19T08:13:57;26.50;93.90
39095;DHT22;24840;47.508;19.376;2023-06-19T08:16:25;27.00;96.60
39095;DHT22;24840;47.508;19.376;2023-06-19T08:18:51;27.40;95.60
39095;DHT22;24840;47.508;19.376;2023-06-19T08:21:17;27.40;92.20
39095;DHT22;24840;47.508;19.376;2023-06-19T08:23:43;27.30;93.50
39095;DHT22;24840;47.508;19.376;2023-06-19T08:26:10;27.20;93.80
39095;DHT22;24840;47.508;19.376;2023-06-19T08:28:38;27.40;90.00
39095;DHT22;24840;47.508;19.376;2023-06-19T08:31:05;27.40;91.30
39095;DHT22;24840;47.508;19.376;2023-06-19T08:33:33;27.10;90.70
39095;DHT22;24840;47.508;19.376;2023-06-19T08:35:59;27.30;93.00
39095;DHT22;24840;47.508;19.376;2023-06-19T08:38:25;27.90;91.70
39095;DHT22;24840;47.508;19.376;2023-06-19T08:40:50;28.30;92.50
39095;DHT22;24840;47.508;19.376;2023-06-19T08:43:16;28.30;92.20
39095;DHT22;24840;47.508;19.376;2023-06-19T08:45:42;28.10;85.60
39095;DHT22;24840;47.508;19.376;2023-06-19T08:48:13;28.30;88.40
39095;DHT22;24840;47.508;19.376;2023-06-19T08:50:39;28.30;84.20
39095;DHT22;24840;47.508;19.376;2023-06-19T08:53:04;28.00;89.90
39095;DHT22;24840;47.508;19.376;2023-06-19T08:55:30;28.00;85.20
39095;DHT22;24840;47.508;19.376;2023-06-19T08:57:56;28.00;81.10
39095;DHT22;24840;47.508;19.376;2023-06-19T09:00:26;28.20;85.60
39095;DHT22;24840;47.508;19.376;2023-06-19T09:03:01;28.70;87.60
39095;DHT22;24840;47.508;19.376;2023-06-19T09:05:27;29.40;88.40
39095;DHT22;24840;47.508;19.376;2023-06-19T09:07:59;29.90;86.00
39095;DHT22;24840;47.508;19.376;2023-06-19T09:10:28;29.50;85.60
39095;DHT22;24840;47.508;19.376;2023-06-19T09:13:01;29.70;83.40
39095;DHT22;24840;47.508;19.376;2023-06-19T09:15:29;29.30;85.50
39095;DHT22;24840;47.508;19.376;2023-06-19T09:18:09;29.00;77.60
39095;DHT22;24840;47.508;19.376;2023-06-19T09:20:38;29.70;87.30
39095;DHT22;24840;47.508;19.376;2023-06-19T09:23:06;30.10;82.30
39095;DHT22;24840;47.508;19.376;2023-06-19T09:25:31;29.80;80.50
39095;DHT22;24840;47.508;19.376;2023-06-19T09:27:57;30.20;81.80
39095;DHT22;24840;47.508;19.376;2023-06-19T09:30:23;29.90;78.30
39095;DHT22;24840;47.508;19.376;2023-06-19T09:32:49;30.50;86.90
39095;DHT22;24840;47.508;19.376;2023-06-19T09:35:15;30.40;83.40
39095;DHT22;24840;47.508;19.376;2023-06-19T09:37:41;29.80;76.20
39095;DHT22;24840;47.508;19.376;2023-06-19T09:40:07;30.20;82.30
39095;DHT22;24840;47.508;19.376;2023-06-19T09:42:43;30.50;73.70
39095;DHT22;24840;47.508;19.376;2023-06-19T09:45:12;30.10;73.30
39095;DHT22;24840;47.508;19.376;2023-06-19T09:47:42;29.90;75.10
39095;DHT22;24840;47.508;19.376;2023-06-19T09:50:12;30.20;70.50
39095;DHT22;24840;47.508;19.376;2023-06-19T09:52:39;30.40;71.10
39095;DHT22;24840;47.508;19.376;2023-06-19T09:55:06;31.00;77.10
39095;DHT22;24840;47.508;19.376;2023-06-19T09:57:34;30.60;71.20
39095;DHT22;24840;47.508;19.376;2023-06-19T10:00:01;30.80;72.10
39095;DHT22;24840;47.508;19.376;2023-06-19T10:02:36;31.40;77.30
39095;DHT22;24840;47.508;19.376;2023-06-19T10:05:01;31.50;76.30
39095;DHT22;24840;47.508;19.376;2023-06-19T10:07:33;31.70;77.30
39095;DHT22;24840;47.508;19.376;2023-06-19T10:10:08;30.90;69.80
39095;DHT22;24840;47.508;19.376;2023-06-19T10:17:44;31.20;72.00
39095;DHT22;24840;47.508;19.376;2023-06-19T10:20:21;31.50;76.40
39095;DHT22;24840;47.508;19.376;2023-06-19T10:23:02;31.40;77.60
39095;DHT22;24840;47.508;19.376;2023-06-19T10:25:33;31.50;73.00
39095;DHT22;24840;47.508;19.376;2023-06-19T10:28:00;32.00;78.40
39095;DHT22;24840;47.508;19.376;2023-06-19T10:30:26;31.80;67.90
39095;DHT22;24840;47.508;19.376;2023-06-19T10:32:53;31.70;74.00
39095;DHT22;24840;47.508;19.376;2023-06-19T10:35:19;31.80;71.80
39095;DHT22;24840;47.508;19.376;2023-06-19T10:37:49;32.50;73.60
39095;DHT22;24840;47.508;19.376;2023-06-19T10:40:16;32.80;77.70
39095;DHT22;24840;47.508;19.376;2023-06-19T10:42:43;32.50;72.70
39095;DHT22;24840;47.508;19.376;2023-06-19T10:45:11;32.50;65.70
39095;DHT22;24840;47.508;19.376;2023-06-19T10:47:41;31.70;66.50
39095;DHT22;24840;47.508;19.376;2023-06-19T10:50:12;32.30;67.30
39095;DHT22;24840;47.508;19.376;2023-06-19T10:52:43;32.20;68.10
39095;DHT22;24840;47.508;19.376;2023-06-19T10:55:10;32.30;66.50
39095;DHT22;24840;47.508;19.376;2023-06-19T10:57:36;31.90;61.80
39095;DHT22;24840;47.508;19.376;2023-06-19T11:00:02;32.10;67.10
39095;DHT22;24840;47.508;19.376;2023-06-19T11:02:37;32.00;67.30
39095;DHT22;24840;47.508;19.376;2023-06-19T11:05:05;32.70;70.80
39095;DHT22;24840;47.508;19.376;2023-06-19T11:07:32;33.00;60.30
39095;DHT22;24840;47.508;19.376;2023-06-19T11:09:58;32.80;67.80
39095;DHT22;24840;47.508;19.376;2023-06-19T11:12:24;33.00;67.40
39095;DHT22;24840;47.508;19.376;2023-06-19T11:14:50;32.70;58.30
39095;DHT22;24840;47.508;19.376;2023-06-19T11:17:16;32.20;61.90
39095;DHT22;24840;47.508;19.376;2023-06-19T11:19:46;32.80;65.60
39095;DHT22;24840;47.508;19.376;2023-06-19T11:22:11;32.80;58.20
39095;DHT22;24840;47.508;19.376;2023-06-19T11:24:43;32.40;63.80
39095;DHT22;24840;47.508;19.376;2023-06-19T11:27:21;32.80;67.10
39095;DHT22;24840;47.508;19.376;2023-06-19T11:29:58;33.10;63.70
39095;DHT22;24840;47.508;19.376;2023-06-19T11:32:31;33.30;58.20
39095;DHT22;24840;47.508;19.376;2023-06-19T11:34:57;33.30;63.80
39095;DHT22;24840;47.508;19.376;2023-06-19T11:37:23;32.80;59.10
39095;DHT22;24840;47.508;19.376;2023-06-19T11:39:50;31.70;67.80
39095;DHT22;24840;47.508;19.376;2023-06-19T11:42:19;32.20;64.70
39095;DHT22;24840;47.508;19.376;2023-06-19T11:44:54;33.00;64.30
39095;DHT22;24840;47.508;19.376;2023-06-19T11:47:20;33.40;58.90
39095;DHT22;24840;47.508;19.376;2023-06-19T11:49:49;33.10;61.00
39095;DHT22;24840;47.508;19.376;2023-06-19T11:52:15;33.90;63.40
39095;DHT22;24840;47.508;19.376;2023-06-19T11:54:41;34.20;60.40
39095;DHT22;24840;47.508;19.376;2023-06-19T11:57:09;34.10;64.10
39095;DHT22;24840;47.508;19.376;2023-06-19T11:59:41;33.80;57.10
39095;DHT22;24840;47.508;19.376;2023-06-19T12:02:07;33.40;67.50
39095;DHT22;24840;47.508;19.376;2023-06-19T12:04:34;33.60;58.00
39095;DHT22;24840;47.508;19.376;2023-06-19T12:07:00;34.10;61.70
39095;DHT22;24840;47.508;19.376;2023-06-19T12:09:26;34.20;61.60
39095;DHT22;24840;47.508;19.376;2023-06-19T12:11:53;34.20;61.30
39095;DHT22;24840;47.508;19.376;2023-06-19T12:14:19;33.90;59.90
39095;DHT22;24840;47.508;19.376;2023-06-19T12:16:48;34.40;58.30
39095;DHT22;24840;47.508;19.376;2023-06-19T12:19:14;34.00;60.20
39095;DHT22;24840;47.508;19.376;2023-06-19T12:21:40;34.40;57.60
39095;DHT22;24840;47.508;19.376;2023-06-19T12:24:06;33.90;58.20
39095;DHT22;24840;47.508;19.376;2023-06-19T12:26:35;34.40;56.20
39095;DHT22;24840;47.508;19.376;2023-06-19T12:29:06;34.00;59.90
39095;DHT22;24840;47.508;19.376;2023-06-19T12:31:33;34.40;62.30
39095;DHT22;24840;47.508;19.376;2023-06-19T12:33:59;34.90;64.90
39095;DHT22;24840;47.508;19.376;2023-06-19T12:36:27;34.50;55.20
39095;DHT22;24840;47.508;19.376;2023-06-19T12:38:53;33.80;61.90
39095;DHT22;24840;47.508;19.376;2023-06-19T12:41:22;34.90;60.20
39095;DHT22;24840;47.508;19.376;2023-06-19T12:43:48;34.70;61.40
39095;DHT22;24840;47.508;19.376;2023-06-19T12:46:14;34.80;66.00
39095;DHT22;24840;47.508;19.376;2023-06-19T12:48:43;35.00;61.70
39095;DHT22;24840;47.508;19.376;2023-06-19T12:51:09;34.90;70.10
39095;DHT22;24840;47.508;19.376;2023-06-19T12:53:34;34.60;60.10
39095;DHT22;24840;47.508;19.376;2023-06-19T12:56:00;34.60;58.20
39095;DHT22;24840;47.508;19.376;2023-06-19T12:58:26;34.70;59.50
39095;DHT22;24840;47.508;19.376;2023-06-19T13:00:53;35.10;59.10
39095;DHT22;24840;47.508;19.376;2023-06-19T13:03:20;35.10;59.60
39095;DHT22;24840;47.508;19.376;2023-06-19T13:05:48;34.90;57.90
39095;DHT22;24840;47.508;19.376;2023-06-19T13:08:14;35.20;60.30
39095;DHT22;24840;47.508;19.376;2023-06-19T13:10:40;35.10;63.50
39095;DHT22;24840;47.508;19.376;2023-06-19T13:13:06;35.00;60.00
39095;DHT22;24840;47.508;19.376;2023-06-19T13:15:32;35.40;63.00
39095;DHT22;24840;47.508;19.376;2023-06-19T13:18:01;35.10;60.80
39095;DHT22;24840;47.508;19.376;2023-06-19T13:20:26;35.00;57.60
39095;DHT22;24840;47.508;19.376;2023-06-19T13:22:52;35.20;62.10
39095;DHT22;24840;47.508;19.376;2023-06-19T13:25:18;35.40;59.10
39095;DHT22;24840;47.508;19.376;2023-06-19T13:27:44;34.90;63.50
39095;DHT22;24840;47.508;19.376;2023-06-19T13:30:10;35.10;60.20
39095;DHT22;24840;47.508;19.376;2023-06-19T13:32:36;34.90;63.20
39095;DHT22;24840;47.508;19.376;2023-06-19T13:35:04;34.70;59.30
39095;DHT22;24840;47.508;19.376;2023-06-19T13:37:30;34.80;60.80
39095;DHT22;24840;47.508;19.376;2023-06-19T13:39:56;34.90;59.90
39095;DHT22;24840;47.508;19.376;2023-06-19T13:42:22;34.70;56.50
39095;DHT22;24840;47.508;19.376;2023-06-19T13:44:47;34.00;57.60
39095;DHT22;24840;47.508;19.376;2023-06-19T13:47:13;34.50;58.60
39095;DHT22;24840;47.508;19.376;2023-06-19T13:49:39;34.40;56.30
39095;DHT22;24840;47.508;19.376;2023-06-19T13:52:06;33.00;57.80
39095;DHT22;24840;47.508;19.376;2023-06-19T13:54:31;32.60;61.70
39095;DHT22;24840;47.508;19.376;2023-06-19T13:56:57;33.10;66.00
39095;DHT22;24840;47.508;19.376;2023-06-19T13:59:24;34.00;65.80
39095;DHT22;24840;47.508;19.376;2023-06-19T14:01:49;33.80;60.00
39095;DHT22;24840;47.508;19.376;2023-06-19T14:04:15;32.80;64.10
39095;DHT22;24840;47.508;19.376;2023-06-19T14:06:41;32.20;66.70
39095;DHT22;24840;47.508;19.376;2023-06-19T14:09:08;32.10;66.30
39095;DHT22;24840;47.508;19.376;2023-06-19T14:11:34;31.60;71.40
39095;DHT22;24840;47.508;19.376;2023-06-19T14:13:59;31.50;70.70
39095;DHT22;24840;47.508;19.376;2023-06-19T14:16:25;31.50;72.40
39095;DHT22;24840;47.508;19.376;2023-06-19T14:18:51;32.00;71.40
39095;DHT22;24840;47.508;19.376;2023-06-19T14:21:16;32.60;69.70
39095;DHT22;24840;47.508;19.376;2023-06-19T14:23:43;32.90;69.10
39095;DHT22;24840;47.508;19.376;2023-06-19T14:26:11;32.90;60.00
39095;DHT22;24840;47.508;19.376;2023-06-19T14:28:37;33.10;66.30
39095;DHT22;24840;47.508;19.376;2023-06-19T14:31:06;33.40;66.00
39095;DHT22;24840;47.508;19.376;2023-06-19T14:33:32;33.40;61.70
39095;DHT22;24840;47.508;19.376;2023-06-19T14:35:59;33.70;63.70
39095;DHT22;24840;47.508;19.376;2023-06-19T14:38:25;33.70;66.50
39095;DHT22;24840;47.508;19.376;2023-06-19T14:40:53;33.40;60.80
39095;DHT22;24840;47.508;19.376;2023-06-19T14:43:19;33.50;67.00
39095;DHT22;24840;47.508;19.376;2023-06-19T14:45:45;33.20;67.60
39095;DHT22;24840;47.508;19.376;2023-06-19T14:48:10;33.60;69.60
39095;DHT22;24840;47.508;19.376;2023-06-19T14:50:36;33.90;68.10
39095;DHT22;24840;47.508;19.376;2023-06-19T14:53:02;33.20;63.40
39095;DHT22;24840;47.508;19.376;2023-06-19T14:55:28;32.70;64.30
39095;DHT22;24840;47.508;19.376;2023-06-19T14:57:54;32.50;61.60
39095;DHT22;24840;47.508;19.376;2023-06-19T15:00:20;32.10;59.40
39095;DHT22;24840;47.508;19.376;2023-06-19T15:02:45;32.50;66.80
39095;DHT22;24840;47.508;19.376;2023-06-19T15:05:11;32.50;65.10
39095;DHT22;24840;47.508;19.376;2023-06-19T15:07:37;32.90;70.40
39095;DHT22;24840;47.508;19.376;2023-06-19T15:10:03;32.90;67.10
39095;DHT22;24840;47.508;19.376;2023-06-19T15:12:30;32.50;62.70
39095;DHT22;24840;47.508;19.376;2023-06-19T15:14:57;32.10;65.90
39095;DHT22;24840;47.508;19.376;2023-06-19T15:17:23;32.10;69.00
39095;DHT22;24840;47.508;19.376;2023-06-19T15:19:49;32.10;67.20
39095;DHT22;24840;47.508;19.376;2023-06-19T15:22:15;32.00;68.30